メインページ
METAR-TAF:

METAR-TAF

空港 :

Blue River, ブリティッシュコロンビア州, カナダ

緯度: 52-08N, 経度: 119-18W, 海抜: 679m

現時点の気象観測

当レポートは1時間32分前の00:00(UTC)に作成
無風
気温 -3°C
湿度 93%
気圧 1011 hPa
視程: 24.1km
高度6400ftの雲はほとんどない
高度23000ftの雲は散在している
浅い霧

METAR: CYCP 210000Z 00000KT 15SM MIFG FEW064 SCT230 M03/M04 A2984 RMK SF1CI2 LAST STFD OBS/NEXT 211400Z SLP142

時間: 17:32 (01:32 UTC)


TAF: 見つかりません

4,000以上の空港の気象観測と天気予報(METAR報とTAF報)

利用可能な観測所は地図上に黄色い丸と赤い丸で示す。

丸の上にカーソルを重ねると観測所名を参照できる。

次にクリックすると気象観測と天気予報を参照できる。

マップの切り替え:黒色「×」印の緑ボタンをクリックして拡大、「-」印の緑ボタンをクリックして縮小、緑色の三角印をクリックして隣りの地図に切り替え


METAR-TAF: